createdAt,value
2023-01-15T00:04:31.162Z,9.95
2023-01-15T00:09:31.126Z,9.85
2023-01-15T00:14:31.046Z,9.73
2023-01-15T00:19:31.023Z,9.59
2023-01-15T00:24:30.893Z,9.43
2023-01-15T00:29:30.853Z,9.24
2023-01-15T00:34:30.760Z,9.03
2023-01-15T00:39:30.711Z,8.80
2023-01-15T00:44:30.653Z,8.57
2023-01-15T00:49:30.578Z,8.37
2023-01-15T00:54:30.504Z,8.21
2023-01-15T00:59:30.460Z,8.08
2023-01-15T01:04:30.358Z,7.98
2023-01-15T01:09:54.348Z,7.86
2023-01-15T01:14:46.652Z,7.71
2023-01-15T01:19:46.583Z,7.58
2023-01-15T01:24:46.495Z,7.50
2023-01-15T01:29:46.429Z,7.44
2023-01-15T01:34:46.365Z,7.40
2023-01-15T01:39:46.272Z,7.37
2023-01-15T01:44:46.240Z,7.35
2023-01-15T01:49:46.154Z,7.33
2023-01-15T01:54:46.106Z,7.31
2023-01-15T01:59:46.045Z,7.30
2023-01-15T02:04:45.967Z,7.28
2023-01-15T02:09:45.904Z,7.27
2023-01-15T02:14:45.822Z,7.24
2023-01-15T02:19:45.744Z,7.19
2023-01-15T02:24:45.707Z,7.12
2023-01-15T02:29:45.628Z,7.05
2023-01-15T02:34:45.575Z,6.98
2023-01-15T02:39:45.479Z,6.92
2023-01-15T02:44:45.422Z,6.87
2023-01-15T02:49:45.354Z,6.80
2023-01-15T02:54:45.333Z,6.73
2023-01-15T02:59:45.222Z,6.65
2023-01-15T03:04:45.213Z,6.57
2023-01-15T03:09:45.083Z,6.51
2023-01-15T03:14:45.031Z,6.47
2023-01-15T03:19:44.964Z,6.45
2023-01-15T03:24:44.904Z,6.45
2023-01-15T03:29:44.823Z,6.44
2023-01-15T03:34:44.776Z,6.43
2023-01-15T03:39:44.677Z,6.40
2023-01-15T03:44:44.622Z,6.38
2023-01-15T03:49:44.552Z,6.36
2023-01-15T03:54:44.518Z,6.34
2023-01-15T03:59:44.403Z,6.32
2023-01-15T04:04:44.371Z,6.28
2023-01-15T04:09:44.292Z,6.24
2023-01-15T04:14:44.271Z,6.18
2023-01-15T04:19:44.173Z,6.12
2023-01-15T04:24:44.087Z,6.06
2023-01-15T04:29:44.011Z,6.00
2023-01-15T04:34:43.984Z,5.95
2023-01-15T04:39:43.917Z,5.91
2023-01-15T04:44:43.818Z,5.89
2023-01-15T04:49:43.765Z,5.86
2023-01-15T04:54:43.716Z,5.85
2023-01-15T04:59:43.614Z,5.84
2023-01-15T05:04:43.625Z,5.82
2023-01-15T05:09:43.496Z,5.80
2023-01-15T05:14:43.452Z,5.78
2023-01-15T05:19:43.355Z,5.78
2023-01-15T05:24:43.314Z,5.77
2023-01-15T05:29:43.214Z,5.75
2023-01-15T05:34:43.170Z,5.74
2023-01-15T05:39:43.121Z,5.73
2023-01-15T05:44:43.032Z,5.73
2023-01-15T05:49:42.952Z,5.73
2023-01-15T05:54:42.909Z,5.73
2023-01-15T05:59:42.814Z,5.72
2023-01-15T06:04:42.763Z,5.69
2023-01-15T06:09:42.683Z,5.65
2023-01-15T06:14:42.624Z,5.60
2023-01-15T06:19:42.556Z,5.55
2023-01-15T06:24:42.481Z,5.54
2023-01-15T06:29:42.443Z,5.54
2023-01-15T06:34:42.363Z,5.53
2023-01-15T06:39:42.259Z,5.52
2023-01-15T06:44:42.300Z,5.49
2023-01-15T06:49:42.164Z,5.46
2023-01-15T06:54:42.088Z,5.44
2023-01-15T06:59:42.097Z,5.42
2023-01-15T07:04:58.142Z,5.38
2023-01-15T07:09:50.519Z,5.31
2023-01-15T07:14:50.452Z,5.25
2023-01-15T07:19:50.397Z,5.22
2023-01-15T07:24:50.271Z,5.22
2023-01-15T07:29:50.254Z,5.25
2023-01-15T07:34:50.167Z,5.28
2023-01-15T07:39:50.113Z,5.31
2023-01-15T07:44:50.036Z,5.34
2023-01-15T07:49:49.989Z,5.37
2023-01-15T07:54:49.890Z,5.39
2023-01-15T07:59:49.851Z,5.41
2023-01-15T08:04:49.777Z,5.44
2023-01-15T08:09:49.733Z,5.46
2023-01-15T08:14:49.634Z,5.48
2023-01-15T08:19:49.585Z,5.52
2023-01-15T08:24:49.504Z,5.56
2023-01-15T08:29:49.444Z,5.61
2023-01-15T08:34:49.375Z,5.65
2023-01-15T08:39:49.330Z,5.67
2023-01-15T08:44:49.239Z,5.69
2023-01-15T08:49:49.190Z,5.68
2023-01-15T08:54:49.115Z,5.68
2023-01-15T08:59:49.084Z,5.71
2023-01-15T09:04:49.047Z,5.78
2023-01-15T09:09:48.891Z,5.87
2023-01-15T09:14:57.587Z,5.95
2023-01-15T09:19:49.807Z,6.01
2023-01-15T09:24:48.726Z,6.06
2023-01-15T09:29:48.622Z,6.11
2023-01-15T09:34:48.604Z,6.14
2023-01-15T09:39:48.527Z,6.15
2023-01-15T09:44:48.685Z,6.16
2023-01-15T09:49:48.392Z,6.16
2023-01-15T09:54:48.301Z,6.17
2023-01-15T09:59:48.281Z,6.20
2023-01-15T10:04:48.172Z,6.24
2023-01-15T10:09:48.103Z,6.28
2023-01-15T10:14:48.037Z,6.33
2023-01-15T10:19:48.013Z,6.42
2023-01-15T10:24:47.914Z,6.64
2023-01-15T10:29:47.851Z,7.14
2023-01-15T10:34:47.794Z,7.66
2023-01-15T10:39:47.732Z,7.95
2023-01-15T10:44:47.649Z,8.09
2023-01-15T10:49:47.602Z,8.42
2023-01-15T10:54:47.515Z,8.64
2023-01-15T10:59:47.511Z,8.49
2023-01-15T11:04:47.376Z,8.17
2023-01-15T11:09:47.343Z,7.93
2023-01-15T11:14:47.236Z,8.03
2023-01-15T11:19:47.259Z,8.40
2023-01-15T11:24:47.089Z,9.53
2023-01-15T11:29:47.067Z,12.05
2023-01-15T11:34:46.984Z,14.96
2023-01-15T11:39:46.946Z,15.71
2023-01-15T11:44:46.859Z,14.68
2023-01-15T11:49:46.788Z,13.48
2023-01-15T11:54:46.739Z,12.33
2023-01-15T11:59:46.681Z,11.32
2023-01-15T12:04:46.633Z,10.48
2023-01-15T12:09:46.516Z,9.77
2023-01-15T12:14:46.491Z,9.25
2023-01-15T12:19:46.392Z,8.98
2023-01-15T12:24:46.333Z,8.93
2023-01-15T12:29:46.230Z,8.90
2023-01-15T12:34:47.753Z,8.82
2023-01-15T12:39:46.131Z,8.71
2023-01-15T12:44:46.092Z,8.63
2023-01-15T12:49:45.992Z,8.57
2023-01-15T12:54:45.918Z,8.49
2023-01-15T12:59:45.822Z,8.41
2023-01-15T13:04:45.806Z,8.39
2023-01-15T13:09:45.712Z,8.43
2023-01-15T13:14:46.906Z,8.56
2023-01-15T13:19:45.714Z,8.81
2023-01-15T13:24:45.486Z,8.96
2023-01-15T13:29:45.429Z,8.94
2023-01-15T13:34:45.407Z,8.82
2023-01-15T13:39:45.268Z,8.66
2023-01-15T13:44:45.270Z,8.47
2023-01-15T13:49:45.157Z,8.30
2023-01-15T13:54:45.093Z,8.19
2023-01-15T13:59:45.032Z,8.13
2023-01-15T14:04:44.989Z,8.13
2023-01-15T14:09:44.898Z,8.16
2023-01-15T14:14:44.857Z,8.16
2023-01-15T14:19:44.784Z,8.17
2023-01-15T14:24:46.537Z,8.15
2023-01-15T14:29:44.655Z,8.10
2023-01-15T14:34:44.621Z,8.01
2023-01-15T14:39:44.503Z,7.90
2023-01-15T14:44:44.483Z,7.81
2023-01-15T14:49:44.363Z,7.74
2023-01-15T14:54:44.310Z,7.68
2023-01-15T14:59:44.228Z,7.61
2023-01-15T15:04:45.536Z,7.54
2023-01-15T15:09:44.156Z,7.47
2023-01-15T15:14:44.043Z,7.42
2023-01-15T15:19:44.035Z,7.40
2023-01-15T15:24:43.908Z,7.36
2023-01-15T15:29:43.832Z,7.29
2023-01-15T15:34:43.780Z,7.20
2023-01-15T15:39:43.674Z,7.10
2023-01-15T15:44:43.700Z,6.99
2023-01-15T15:49:43.557Z,6.89
2023-01-15T15:54:43.500Z,6.80
2023-01-15T15:59:43.419Z,6.72
2023-01-15T16:04:43.371Z,6.67
2023-01-15T16:09:43.300Z,6.62
2023-01-15T16:14:43.228Z,6.57
2023-01-15T16:19:43.136Z,6.53
2023-01-15T16:24:43.099Z,6.50
2023-01-15T16:29:43.022Z,6.46
2023-01-15T16:34:42.973Z,6.41
2023-01-15T16:39:42.883Z,6.35
2023-01-15T16:44:42.848Z,6.30
2023-01-15T16:49:42.743Z,6.27
2023-01-15T16:54:42.705Z,6.24
2023-01-15T16:59:42.629Z,6.22
2023-01-15T17:04:42.630Z,6.21
2023-01-15T17:09:42.497Z,6.19
2023-01-15T17:14:42.445Z,6.17
2023-01-15T17:19:42.366Z,6.15
2023-01-15T17:24:42.304Z,6.12
2023-01-15T17:29:42.207Z,6.09
2023-01-15T17:34:42.163Z,6.04
2023-01-15T17:39:42.086Z,5.97
2023-01-15T17:44:42.074Z,5.90
2023-01-15T17:49:41.994Z,5.85
2023-01-15T17:54:41.897Z,5.83
2023-01-15T17:59:41.806Z,5.79
2023-01-15T18:04:41.779Z,5.76
2023-01-15T18:09:41.698Z,5.72
2023-01-15T18:14:41.624Z,5.69
2023-01-15T18:19:41.579Z,5.65
2023-01-15T18:24:41.552Z,5.61
2023-01-15T18:29:41.449Z,5.54
2023-01-15T18:34:41.369Z,5.47
2023-01-15T18:39:41.265Z,5.41
2023-01-15T18:44:41.238Z,5.37
2023-01-15T18:49:41.206Z,5.33
2023-01-15T18:54:41.113Z,5.30
2023-01-15T18:59:41.055Z,5.27
2023-01-15T19:04:40.993Z,5.26
2023-01-15T19:09:40.912Z,5.24
2023-01-15T19:14:40.904Z,5.22
2023-01-15T19:19:40.773Z,5.18
2023-01-15T19:24:40.718Z,5.14
2023-01-15T19:29:40.634Z,5.09
2023-01-15T19:34:40.578Z,5.03
2023-01-15T19:39:40.539Z,4.96
2023-01-15T19:44:40.438Z,4.89
2023-01-15T19:49:40.360Z,4.83
2023-01-15T19:54:40.263Z,4.79
2023-01-15T19:59:40.235Z,4.78
2023-01-15T20:04:40.246Z,4.80
2023-01-15T20:09:40.074Z,4.82
2023-01-15T20:14:40.021Z,4.82
2023-01-15T20:19:40.079Z,4.81
2023-01-15T20:24:40.237Z,4.79
2023-01-15T20:29:39.821Z,4.77
2023-01-15T20:34:39.763Z,4.79
2023-01-15T20:39:39.728Z,4.83
2023-01-15T20:44:39.627Z,4.90
2023-01-15T20:49:39.647Z,4.98
2023-01-15T20:54:39.908Z,5.07
2023-01-15T20:59:39.401Z,5.14
2023-01-15T21:04:39.375Z,5.20
2023-01-15T21:09:39.266Z,5.25
2023-01-15T21:14:39.285Z,5.28
2023-01-15T21:19:39.133Z,5.30
2023-01-15T21:24:39.094Z,5.30
2023-01-15T21:29:39.004Z,5.29
2023-01-15T21:34:38.939Z,5.28
2023-01-15T21:39:38.874Z,5.27
2023-01-15T21:44:38.806Z,5.27
2023-01-15T21:49:38.726Z,5.28
2023-01-15T21:54:38.670Z,5.30
2023-01-15T21:59:38.649Z,5.32
2023-01-15T22:04:38.552Z,5.33
2023-01-15T22:09:38.455Z,5.36
2023-01-15T22:14:38.404Z,5.39
2023-01-15T22:19:38.466Z,5.43
2023-01-15T22:24:39.089Z,5.48
2023-01-15T22:29:38.186Z,5.52
2023-01-15T22:34:38.114Z,5.56
2023-01-15T22:39:38.052Z,5.60
2023-01-15T22:44:38.111Z,5.62
2023-01-15T22:49:37.916Z,5.64
2023-01-15T22:54:37.859Z,5.66
2023-01-15T22:59:37.779Z,5.68
2023-01-15T23:04:37.784Z,5.70
2023-01-15T23:09:37.645Z,5.71
2023-01-15T23:14:37.593Z,5.71
2023-01-15T23:19:37.512Z,5.70
2023-01-15T23:24:37.460Z,5.70
2023-01-15T23:29:37.381Z,5.71
2023-01-15T23:34:37.331Z,5.72
2023-01-15T23:39:37.236Z,5.72
2023-01-15T23:44:37.190Z,5.73
2023-01-15T23:49:37.123Z,5.73
2023-01-15T23:54:37.060Z,5.74
2023-01-15T23:59:36.976Z,5.75
